Mount Sterling, Kentucky
Current Conditions -  °F | °C
As of 5:15 PM on Sunday 25 Jan 2015 (Local Time) from KIOB Reporting Station
Overcast Overcast  
Wind Chill: 41°   Ceiling: 8000
Heat Index: 45°   Visibility: 10mi
Dew Point: 36°   Wind: 6mph
Humidity: 71%   Direction: 130°SE
Pressure: 29.66"   Gusts: NA
Location:  38.06°N, 83.94°W
Report Text: KIOB 252215Z AUTO 13005KT 10SM SCT070 OVC080 07/02 A2966 RMK AO2
Loading
Personal Weather Stations






























Interactive Weather Map New forecast layout! Learn more

10-Day Weather Forecast

Advertisements
Track Severe Weather on mobile